createdAt,value
2023-02-20T00:00:04.559Z,7.77
2023-02-20T00:01:04.597Z,7.69
2023-02-20T00:02:04.633Z,7.70
2023-02-20T00:03:04.572Z,7.63
2023-02-20T00:04:04.536Z,7.63
2023-02-20T00:05:04.525Z,7.50
2023-02-20T00:06:04.539Z,7.58
2023-02-20T00:07:04.567Z,7.51
2023-02-20T00:08:04.514Z,7.58
2023-02-20T00:09:04.524Z,7.58
2023-02-20T00:10:04.492Z,7.50
2023-02-20T00:11:04.563Z,7.60
2023-02-20T00:12:04.546Z,7.47
2023-02-20T00:13:04.490Z,7.58
2023-02-20T00:14:04.520Z,7.58
2023-02-20T00:15:04.472Z,7.54
2023-02-20T00:16:04.545Z,7.63
2023-02-20T00:17:04.478Z,7.63
2023-02-20T00:18:04.513Z,7.63
2023-02-20T00:19:04.464Z,7.52
2023-02-20T00:20:04.458Z,7.66
2023-02-20T00:21:04.460Z,7.55
2023-02-20T00:22:04.453Z,7.57
2023-02-20T00:23:04.486Z,7.55
2023-02-20T00:24:04.424Z,7.51
2023-02-20T00:25:04.433Z,7.62
2023-02-20T00:26:04.423Z,7.73
2023-02-20T00:27:04.420Z,7.63
2023-02-20T00:28:04.452Z,7.50
2023-02-20T00:29:04.479Z,7.54
2023-02-20T00:30:04.474Z,7.48
2023-02-20T00:31:05.548Z,7.57
2023-02-20T00:32:04.405Z,7.54
2023-02-20T00:33:04.458Z,7.62
2023-02-20T00:34:04.451Z,7.52
2023-02-20T00:35:04.431Z,7.47
2023-02-20T00:36:04.376Z,7.57
2023-02-20T00:37:04.387Z,7.62
2023-02-20T00:38:04.364Z,7.48
2023-02-20T00:39:04.367Z,7.57
2023-02-20T00:40:04.396Z,7.52
2023-02-20T00:41:04.374Z,7.57
2023-02-20T00:42:04.355Z,7.63
2023-02-20T00:43:04.351Z,7.48
2023-02-20T00:44:04.357Z,7.57
2023-02-20T00:45:04.428Z,7.54
2023-02-20T00:46:04.478Z,7.58
2023-02-20T00:47:04.346Z,7.54
2023-02-20T00:48:04.371Z,7.39
2023-02-20T00:49:04.353Z,7.44
2023-02-20T00:50:04.332Z,7.45
2023-02-20T00:51:04.363Z,7.42
2023-02-20T00:52:04.316Z,7.39
2023-02-20T00:53:04.300Z,7.37
2023-02-20T00:54:04.310Z,7.36
2023-02-20T00:55:04.296Z,7.21
2023-02-20T00:56:04.328Z,7.23
2023-02-20T00:57:04.312Z,7.26
2023-02-20T00:58:04.299Z,7.26
2023-02-20T00:59:04.270Z,7.24
2023-02-20T01:00:04.283Z,7.23
2023-02-20T01:01:04.313Z,7.21
2023-02-20T01:02:04.296Z,7.08
2023-02-20T01:03:04.333Z,7.15
2023-02-20T01:04:04.274Z,7.08
2023-02-20T01:05:04.246Z,7.15
2023-02-20T01:06:04.279Z,7.05
2023-02-20T01:07:04.321Z,7.09
2023-02-20T01:08:04.244Z,7.15
2023-02-20T01:09:04.255Z,7.12
2023-02-20T01:10:04.221Z,7.18
2023-02-20T01:11:04.233Z,7.21
2023-02-20T01:12:04.272Z,7.15
2023-02-20T01:13:04.223Z,7.15
2023-02-20T01:14:04.239Z,7.11
2023-02-20T01:15:04.201Z,6.97
2023-02-20T01:16:04.304Z,7.07
2023-02-20T01:17:04.238Z,7.00
2023-02-20T01:18:04.217Z,7.01
2023-02-20T01:19:04.214Z,6.97
2023-02-20T01:20:04.177Z,7.05
2023-02-20T01:21:04.200Z,7.05
2023-02-20T01:22:04.192Z,6.93
2023-02-20T01:23:04.192Z,6.82
2023-02-20T01:24:04.147Z,6.83
2023-02-20T01:25:04.164Z,6.87
2023-02-20T01:26:04.218Z,6.78
2023-02-20T01:27:04.167Z,6.78
2023-02-20T01:28:04.212Z,6.86
2023-02-20T01:29:04.146Z,6.86
2023-02-20T01:30:04.126Z,6.83
2023-02-20T01:31:04.276Z,6.91
2023-02-20T01:32:04.349Z,6.87
2023-02-20T01:33:04.148Z,6.93
2023-02-20T01:34:04.097Z,6.90
2023-02-20T01:35:05.105Z,6.96
2023-02-20T01:36:04.150Z,6.87
2023-02-20T01:37:04.086Z,6.82
2023-02-20T01:38:04.086Z,6.86
2023-02-20T01:39:04.110Z,6.86
2023-02-20T01:40:04.095Z,6.69
2023-02-20T01:41:04.071Z,6.83
2023-02-20T01:42:04.087Z,6.75
2023-02-20T01:43:04.063Z,6.81
2023-02-20T01:44:04.108Z,6.73
2023-02-20T01:45:04.072Z,6.83
2023-02-20T01:46:04.062Z,6.78
2023-02-20T01:47:04.050Z,6.79
2023-02-20T01:48:04.049Z,6.65
2023-02-20T01:49:04.069Z,6.79
2023-02-20T01:50:04.038Z,6.65
2023-02-20T01:51:04.039Z,6.75
2023-02-20T01:52:04.016Z,6.73
2023-02-20T01:53:04.023Z,6.72
2023-02-20T01:54:04.044Z,6.76
2023-02-20T01:55:04.062Z,6.82
2023-02-20T01:56:04.056Z,6.75
2023-02-20T01:57:04.014Z,6.82
2023-02-20T01:58:03.966Z,6.79
2023-02-20T01:59:03.998Z,6.72
2023-02-20T02:00:03.968Z,6.76
2023-02-20T02:01:04.021Z,6.73
2023-02-20T02:02:04.066Z,6.76
2023-02-20T02:03:03.963Z,6.79
2023-02-20T02:04:03.980Z,6.78
2023-02-20T02:05:04.011Z,6.69
2023-02-20T02:06:04.009Z,6.61
2023-02-20T02:07:03.951Z,6.69
2023-02-20T02:08:03.956Z,6.60
2023-02-20T02:09:03.931Z,6.64
2023-02-20T02:10:03.961Z,6.60
2023-02-20T02:11:03.964Z,6.69
2023-02-20T02:12:03.890Z,6.61
2023-02-20T02:13:04.899Z,6.65
2023-02-20T02:14:03.897Z,6.61
2023-02-20T02:15:03.898Z,6.60
2023-02-20T02:16:03.951Z,6.54
2023-02-20T02:17:03.876Z,6.64
2023-02-20T02:18:03.879Z,6.61
2023-02-20T02:19:03.881Z,6.55
2023-02-20T02:20:03.881Z,6.53
2023-02-20T02:21:03.919Z,6.54
2023-02-20T02:22:03.965Z,6.55
2023-02-20T02:23:03.886Z,6.50
2023-02-20T02:24:03.859Z,6.51
2023-02-20T02:25:03.852Z,6.57
2023-02-20T02:26:03.855Z,6.55
2023-02-20T02:27:03.873Z,6.64
2023-02-20T02:28:03.845Z,6.55
2023-02-20T02:29:03.849Z,6.57
2023-02-20T02:30:03.848Z,6.50
2023-02-20T02:31:03.811Z,6.58
2023-02-20T02:32:03.891Z,6.61
2023-02-20T02:33:03.819Z,6.53
2023-02-20T02:34:03.828Z,6.60
2023-02-20T02:35:03.782Z,6.63
2023-02-20T02:36:03.789Z,6.69
2023-02-20T02:37:03.790Z,6.73
2023-02-20T02:38:03.797Z,6.73
2023-02-20T02:39:03.806Z,6.75
2023-02-20T02:40:03.786Z,6.63
2023-02-20T02:41:03.876Z,6.38
2023-02-20T02:42:03.775Z,6.27
2023-02-20T02:43:03.737Z,6.25
2023-02-20T02:44:03.761Z,6.11
2023-02-20T02:45:03.767Z,5.85
2023-02-20T02:46:03.850Z,5.99
2023-02-20T02:47:03.754Z,6.01
2023-02-20T02:48:03.735Z,5.84
2023-02-20T02:49:03.733Z,5.70
2023-02-20T02:50:03.710Z,5.80
2023-02-20T02:51:03.729Z,5.83
2023-02-20T02:52:03.742Z,5.99
2023-02-20T02:53:03.690Z,6.05
2023-02-20T02:54:03.726Z,6.02
2023-02-20T02:55:03.751Z,5.96
2023-02-20T02:56:03.697Z,6.03
2023-02-20T02:57:03.685Z,5.93
2023-02-20T02:58:03.686Z,6.06
2023-02-20T02:59:03.678Z,6.11
2023-02-20T03:00:03.696Z,6.08
2023-02-20T03:01:03.732Z,5.81
2023-02-20T03:02:03.686Z,5.67
2023-02-20T03:03:03.652Z,5.73
2023-02-20T03:04:03.660Z,5.75
2023-02-20T03:05:03.705Z,5.88
2023-02-20T03:06:03.640Z,5.83
2023-02-20T03:07:03.624Z,5.90
2023-02-20T03:08:03.605Z,5.93
2023-02-20T03:09:03.608Z,5.92
2023-02-20T03:10:03.635Z,5.90
2023-02-20T03:11:03.637Z,5.95
2023-02-20T03:12:03.610Z,6.01
2023-02-20T03:13:03.598Z,6.06
2023-02-20T03:14:03.566Z,6.05
2023-02-20T03:15:03.610Z,6.13
2023-02-20T03:16:03.629Z,6.20
2023-02-20T03:17:04.592Z,6.27
2023-02-20T03:18:03.566Z,6.21
2023-02-20T03:19:03.564Z,6.32
2023-02-20T03:20:03.563Z,6.27
2023-02-20T03:21:03.565Z,6.35
2023-02-20T03:22:03.625Z,6.40
2023-02-20T03:23:03.527Z,6.39
2023-02-20T03:24:03.546Z,6.36
2023-02-20T03:25:03.554Z,6.42
2023-02-20T03:26:03.542Z,6.45
2023-02-20T03:27:03.575Z,6.46
2023-02-20T03:28:03.546Z,6.43
2023-02-20T03:29:03.513Z,6.46
2023-02-20T03:30:03.537Z,6.46
2023-02-20T03:31:03.540Z,6.46
2023-02-20T03:32:03.703Z,6.55
2023-02-20T03:33:03.544Z,6.48
2023-02-20T03:34:03.496Z,6.46
2023-02-20T03:35:03.489Z,6.48
2023-02-20T03:36:03.507Z,6.45
2023-02-20T03:37:03.495Z,6.46
2023-02-20T03:38:03.525Z,6.51
2023-02-20T03:39:03.474Z,6.48
2023-02-20T03:40:04.477Z,6.51
2023-02-20T03:41:03.466Z,6.45
2023-02-20T03:42:03.542Z,6.38
2023-02-20T03:43:03.467Z,6.40
2023-02-20T03:44:03.502Z,6.48
2023-02-20T03:45:03.435Z,6.43
2023-02-20T03:46:03.448Z,6.43
2023-02-20T03:47:03.442Z,6.43
2023-02-20T03:48:03.425Z,6.51
2023-02-20T03:49:03.447Z,6.38
2023-02-20T03:50:03.461Z,6.53
2023-02-20T03:51:03.408Z,6.40
2023-02-20T03:52:03.411Z,6.36
2023-02-20T03:53:03.425Z,6.46
2023-02-20T03:54:03.390Z,6.43
2023-02-20T03:55:03.424Z,6.42
2023-02-20T03:56:03.372Z,6.51
2023-02-20T03:57:04.370Z,6.38
2023-02-20T03:58:03.365Z,6.51
2023-02-20T03:59:03.442Z,6.43
2023-02-20T04:00:03.351Z,6.46
2023-02-20T04:01:03.446Z,6.50
2023-02-20T04:02:03.342Z,6.61
2023-02-20T04:03:03.353Z,6.60
2023-02-20T04:04:03.335Z,6.68
2023-02-20T04:05:03.304Z,6.65
2023-02-20T04:06:03.360Z,6.69
2023-02-20T04:07:03.317Z,6.68
2023-02-20T04:08:03.296Z,6.69
2023-02-20T04:09:03.286Z,6.65
2023-02-20T04:10:04.163Z,6.76
2023-02-20T04:11:03.274Z,6.69
2023-02-20T04:12:03.278Z,6.73
2023-02-20T04:13:03.276Z,6.68
2023-02-20T04:14:03.303Z,6.72
2023-02-20T04:15:03.275Z,6.72
2023-02-20T04:16:03.250Z,6.79
2023-02-20T04:17:03.261Z,6.83
2023-02-20T04:18:03.324Z,6.76
2023-02-20T04:19:03.237Z,6.69
2023-02-20T04:20:03.219Z,6.81
2023-02-20T04:21:03.226Z,6.79
2023-02-20T04:22:03.239Z,6.76
2023-02-20T04:23:03.252Z,6.65
2023-02-20T04:24:03.232Z,6.82
2023-02-20T04:25:03.198Z,6.79
2023-02-20T04:26:03.210Z,6.71
2023-02-20T04:27:03.185Z,6.73
2023-02-20T04:28:03.315Z,6.71
2023-02-20T04:29:03.184Z,6.69
2023-02-20T04:30:03.238Z,6.71
2023-02-20T04:31:03.251Z,6.61
2023-02-20T04:32:03.365Z,6.69
2023-02-20T04:33:03.193Z,6.69
2023-02-20T04:34:03.155Z,6.68
2023-02-20T04:35:03.145Z,6.64
2023-02-20T04:36:03.120Z,6.64
2023-02-20T04:37:03.185Z,6.48
2023-02-20T04:38:03.131Z,6.42
2023-02-20T04:39:03.112Z,6.57
2023-02-20T04:40:03.158Z,6.53
2023-02-20T04:41:03.105Z,6.60
2023-02-20T04:42:03.097Z,6.54
2023-02-20T04:43:03.109Z,6.36
2023-02-20T04:44:03.107Z,6.27
2023-02-20T04:45:03.086Z,6.32
2023-02-20T04:46:03.099Z,6.30
2023-02-20T04:47:03.072Z,6.28
2023-02-20T04:48:03.063Z,6.08
2023-02-20T04:49:03.120Z,6.16
2023-02-20T04:50:03.109Z,6.16
2023-02-20T04:51:03.332Z,6.16
2023-02-20T04:52:04.069Z,6.21
2023-02-20T04:53:03.052Z,6.20
2023-02-20T04:54:03.189Z,6.21
2023-02-20T04:55:03.081Z,6.08
2023-02-20T04:56:03.033Z,6.11
2023-02-20T04:57:03.004Z,5.93
2023-02-20T04:58:03.055Z,6.02
2023-02-20T04:59:03.140Z,6.02
2023-02-20T05:00:03.000Z,5.98
2023-02-20T05:01:03.129Z,6.14
2023-02-20T05:02:02.999Z,6.13
2023-02-20T05:03:03.000Z,6.03
2023-02-20T05:04:03.000Z,6.01
2023-02-20T05:05:03.011Z,6.11
2023-02-20T05:06:02.993Z,6.17
2023-02-20T05:07:02.968Z,6.28
2023-02-20T05:08:02.972Z,6.24
2023-02-20T05:09:02.954Z,6.27
2023-02-20T05:10:02.952Z,6.25
2023-02-20T05:11:02.935Z,6.24
2023-02-20T05:12:02.969Z,6.14
2023-02-20T05:13:02.943Z,6.13
2023-02-20T05:14:02.936Z,6.11
2023-02-20T05:15:02.936Z,6.10
2023-02-20T05:16:02.945Z,6.11
2023-02-20T05:17:02.927Z,6.13
2023-02-20T05:18:02.910Z,6.08
2023-02-20T05:19:02.905Z,6.10
2023-02-20T05:20:02.878Z,6.06
2023-02-20T05:21:02.933Z,6.02
2023-02-20T05:22:02.923Z,6.01
2023-02-20T05:23:02.912Z,6.10
2023-02-20T05:24:05.476Z,6.16
2023-02-20T05:25:02.865Z,6.21
2023-02-20T05:26:02.880Z,6.21
2023-02-20T05:27:02.861Z,6.05
2023-02-20T05:28:02.832Z,6.01
2023-02-20T05:29:02.847Z,5.87
2023-02-20T05:30:02.843Z,5.85
2023-02-20T05:31:02.902Z,5.81
2023-02-20T05:32:02.942Z,5.92
2023-02-20T05:33:02.826Z,5.84
2023-02-20T05:34:02.810Z,5.81
2023-02-20T05:35:02.826Z,5.85
2023-02-20T05:36:02.857Z,5.95
2023-02-20T05:37:02.800Z,5.87
2023-02-20T05:38:02.805Z,5.78
2023-02-20T05:39:02.795Z,5.85
2023-02-20T05:40:02.882Z,5.84
2023-02-20T05:41:02.777Z,5.73
2023-02-20T05:42:02.772Z,5.62
2023-02-20T05:43:02.788Z,5.73
2023-02-20T05:44:02.758Z,5.66
2023-02-20T05:45:02.774Z,5.66
2023-02-20T05:46:02.760Z,5.69
2023-02-20T05:47:02.780Z,5.60
2023-02-20T05:48:02.727Z,5.62
2023-02-20T05:49:02.730Z,5.62
2023-02-20T05:50:02.723Z,5.55
2023-02-20T05:51:02.710Z,5.56
2023-02-20T05:52:02.753Z,5.59
2023-02-20T05:53:02.749Z,5.62
2023-02-20T05:54:02.717Z,5.62
2023-02-20T05:55:02.748Z,5.67
2023-02-20T05:56:02.829Z,5.75
2023-02-20T05:57:02.682Z,5.78
2023-02-20T05:58:02.683Z,5.75
2023-02-20T05:59:02.707Z,5.81
2023-02-20T06:00:02.678Z,5.85
2023-02-20T06:01:02.704Z,5.78
2023-02-20T06:02:02.680Z,5.90
2023-02-20T06:03:02.652Z,5.93
2023-02-20T06:04:02.785Z,5.87
2023-02-20T06:05:02.642Z,5.95
2023-02-20T06:06:02.714Z,5.95
2023-02-20T06:07:02.634Z,6.02
2023-02-20T06:08:02.699Z,5.98
2023-02-20T06:09:02.634Z,5.99
2023-02-20T06:10:02.629Z,5.99
2023-02-20T06:11:02.600Z,6.03
2023-02-20T06:12:02.613Z,5.95
2023-02-20T06:13:02.674Z,5.96
2023-02-20T06:14:02.592Z,6.05
2023-02-20T06:15:02.620Z,6.06
2023-02-20T06:16:02.665Z,6.03
2023-02-20T06:17:02.578Z,6.06
2023-02-20T06:18:02.635Z,5.95
2023-02-20T06:19:02.564Z,5.98
2023-02-20T06:20:02.590Z,5.96
2023-02-20T06:21:02.576Z,6.06
2023-02-20T06:22:02.547Z,6.06
2023-02-20T06:23:02.627Z,6.05
2023-02-20T06:24:02.547Z,6.03
2023-02-20T06:25:02.547Z,6.06
2023-02-20T06:26:02.549Z,6.02
2023-02-20T06:27:02.517Z,6.06
2023-02-20T06:28:02.544Z,6.05
2023-02-20T06:29:02.514Z,6.06
2023-02-20T06:30:02.521Z,6.11
2023-02-20T06:31:02.739Z,6.11
2023-02-20T06:32:02.636Z,6.10
2023-02-20T06:33:02.497Z,6.05
2023-02-20T06:34:02.486Z,6.05
2023-02-20T06:35:02.480Z,6.08
2023-02-20T06:36:02.535Z,6.16
2023-02-20T06:37:02.519Z,6.03
2023-02-20T06:38:02.473Z,6.05
2023-02-20T06:39:02.459Z,6.05
2023-02-20T06:40:02.555Z,6.01
2023-02-20T06:41:02.492Z,6.05
2023-02-20T06:42:02.443Z,6.06
2023-02-20T06:43:02.437Z,6.08
2023-02-20T06:44:02.435Z,6.03
2023-02-20T06:45:02.447Z,6.03
2023-02-20T06:46:02.527Z,6.19
2023-02-20T06:47:02.457Z,6.19
2023-02-20T06:48:02.422Z,6.17
2023-02-20T06:49:02.402Z,6.20
2023-02-20T06:50:02.426Z,6.32
2023-02-20T06:51:02.419Z,6.24
2023-02-20T06:52:04.209Z,6.25
2023-02-20T06:53:03.408Z,6.20
2023-02-20T06:54:02.411Z,6.25
2023-02-20T06:55:02.403Z,6.27
2023-02-20T06:56:02.366Z,6.21
2023-02-20T06:57:02.387Z,6.28
2023-02-20T06:58:02.373Z,6.27
2023-02-20T06:59:02.436Z,6.21
2023-02-20T07:00:02.420Z,6.35
2023-02-20T07:01:02.378Z,6.30
2023-02-20T07:02:02.386Z,6.28
2023-02-20T07:03:02.362Z,6.43
2023-02-20T07:04:03.011Z,6.42
2023-02-20T07:05:03.357Z,6.45
2023-02-20T07:06:02.318Z,6.36
2023-02-20T07:07:02.406Z,6.39
2023-02-20T07:08:02.316Z,6.55
2023-02-20T07:09:02.385Z,6.58
2023-02-20T07:10:02.323Z,6.60
2023-02-20T07:11:02.325Z,6.65
2023-02-20T07:12:02.328Z,6.57
2023-02-20T07:13:02.282Z,6.58
2023-02-20T07:14:02.352Z,6.55
2023-02-20T07:15:02.290Z,6.71
2023-02-20T07:16:02.371Z,6.65
2023-02-20T07:17:02.255Z,6.68
2023-02-20T07:18:02.305Z,6.71
2023-02-20T07:19:02.275Z,6.65
2023-02-20T07:20:02.265Z,6.68
2023-02-20T07:21:02.263Z,6.73
2023-02-20T07:22:02.249Z,6.75
2023-02-20T07:23:02.563Z,6.78
2023-02-20T07:24:02.321Z,6.82
2023-02-20T07:25:02.376Z,6.82
2023-02-20T07:26:02.309Z,6.97
2023-02-20T07:27:02.274Z,7.04
2023-02-20T07:28:02.544Z,6.97
2023-02-20T07:29:02.337Z,6.97
2023-02-20T07:30:02.334Z,6.94
2023-02-20T07:31:02.330Z,6.93
2023-02-20T07:32:02.521Z,6.97
2023-02-20T07:33:02.220Z,6.91
2023-02-20T07:34:02.192Z,6.93
2023-02-20T07:35:06.180Z,6.93
2023-02-20T07:36:04.180Z,7.00
2023-02-20T07:37:02.189Z,6.96
2023-02-20T07:38:02.202Z,6.97
2023-02-20T07:39:02.253Z,7.00
2023-02-20T07:40:02.151Z,6.99
2023-02-20T07:41:02.159Z,7.05
2023-02-20T07:42:02.133Z,7.01
2023-02-20T07:43:02.128Z,6.99
2023-02-20T07:44:02.146Z,7.00
2023-02-20T07:45:02.307Z,7.04
2023-02-20T07:46:02.483Z,7.09
2023-02-20T07:47:02.119Z,7.01
2023-02-20T07:48:02.118Z,7.04
2023-02-20T07:49:02.115Z,6.97
2023-02-20T07:50:02.136Z,6.94
2023-02-20T07:51:02.129Z,6.96
2023-02-20T07:52:02.129Z,6.90
2023-02-20T07:53:02.082Z,7.01
2023-02-20T07:54:02.090Z,6.96
2023-02-20T07:55:02.128Z,6.86
2023-02-20T07:56:02.069Z,6.81
2023-02-20T07:57:02.075Z,6.73
2023-02-20T07:58:02.053Z,6.75
2023-02-20T07:59:02.067Z,6.79
2023-02-20T08:00:02.056Z,6.97
2023-02-20T08:01:02.039Z,6.86
2023-02-20T08:02:02.069Z,6.94
2023-02-20T08:03:02.060Z,6.82
2023-02-20T08:04:02.029Z,6.94
2023-02-20T08:05:02.042Z,6.97
2023-02-20T08:06:02.009Z,6.97
2023-02-20T08:07:02.036Z,6.90
2023-02-20T08:08:01.993Z,6.99
2023-02-20T08:09:02.013Z,6.94
2023-02-20T08:10:01.985Z,6.97
2023-02-20T08:11:08.649Z,7.07
2023-02-20T08:12:04.037Z,7.14
2023-02-20T08:13:02.012Z,7.19
2023-02-20T08:14:01.981Z,7.27
2023-02-20T08:15:01.964Z,7.41
2023-02-20T08:16:02.012Z,7.44
2023-02-20T08:17:01.995Z,7.39
2023-02-20T08:18:02.512Z,7.41
2023-02-20T08:19:02.048Z,7.23
2023-02-20T08:20:01.933Z,7.29
2023-02-20T08:21:01.931Z,7.30
2023-02-20T08:22:01.936Z,7.26
2023-02-20T08:23:01.968Z,7.27
2023-02-20T08:24:01.959Z,7.32
2023-02-20T08:25:01.928Z,7.16
2023-02-20T08:26:01.968Z,7.15
2023-02-20T08:27:01.926Z,7.16
2023-02-20T08:28:01.899Z,7.12
2023-02-20T08:29:02.056Z,7.16
2023-02-20T08:30:01.989Z,7.08
2023-02-20T08:31:01.894Z,7.01
2023-02-20T08:32:01.984Z,7.08
2023-02-20T08:33:01.878Z,7.04
2023-02-20T08:34:01.911Z,7.00
2023-02-20T08:35:02.020Z,7.05
2023-02-20T08:36:01.907Z,7.07
2023-02-20T08:37:01.906Z,7.19
2023-02-20T08:38:03.572Z,7.09
2023-02-20T08:39:03.004Z,7.14
2023-02-20T08:40:01.861Z,7.23
2023-02-20T08:41:01.853Z,7.21
2023-02-20T08:42:01.840Z,7.30
2023-02-20T08:43:01.884Z,7.32
2023-02-20T08:44:01.916Z,7.23
2023-02-20T08:45:01.840Z,7.27
2023-02-20T08:46:01.834Z,7.37
2023-02-20T08:47:01.905Z,7.29
2023-02-20T08:48:01.889Z,7.30
2023-02-20T08:49:01.807Z,7.34
2023-02-20T08:50:01.852Z,7.42
2023-02-20T08:51:01.802Z,7.57
2023-02-20T08:52:01.799Z,7.57
2023-02-20T08:53:01.810Z,7.67
2023-02-20T08:54:01.785Z,7.77
2023-02-20T08:55:01.826Z,7.89
2023-02-20T08:56:01.813Z,7.89
2023-02-20T08:57:01.792Z,8.04
2023-02-20T08:58:01.820Z,7.88
2023-02-20T08:59:01.771Z,7.86
2023-02-20T09:00:01.905Z,7.76
2023-02-20T09:01:01.834Z,7.81
2023-02-20T09:02:01.747Z,7.89
2023-02-20T09:03:01.827Z,7.85
2023-02-20T09:04:01.737Z,7.84
2023-02-20T09:05:01.751Z,8.07
2023-02-20T09:06:01.766Z,8.03
2023-02-20T09:07:01.766Z,8.04
2023-02-20T09:08:01.708Z,8.17
2023-02-20T09:09:01.709Z,8.14
2023-02-20T09:10:01.725Z,8.25
2023-02-20T09:11:01.733Z,8.45
2023-02-20T09:12:01.742Z,8.45
2023-02-20T09:13:01.722Z,8.58
2023-02-20T09:14:01.701Z,8.64
2023-02-20T09:15:01.735Z,8.76
2023-02-20T09:16:01.736Z,8.86
2023-02-20T09:17:01.688Z,8.80
2023-02-20T09:18:01.696Z,8.88
2023-02-20T09:19:01.673Z,9.04
2023-02-20T09:20:02.687Z,9.16
2023-02-20T09:21:01.723Z,9.19
2023-02-20T09:22:01.687Z,9.31
2023-02-20T09:23:01.648Z,9.30
2023-02-20T09:24:01.663Z,9.41
2023-02-20T09:25:01.649Z,9.48
2023-02-20T09:26:01.676Z,9.59
2023-02-20T09:27:01.709Z,9.53
2023-02-20T09:28:01.617Z,9.63
2023-02-20T09:29:02.646Z,9.74
2023-02-20T09:30:01.736Z,9.88
2023-02-20T09:31:01.609Z,9.81
2023-02-20T09:32:01.778Z,9.75
2023-02-20T09:33:01.603Z,9.75
2023-02-20T09:34:01.611Z,9.80
2023-02-20T09:35:01.621Z,9.73
2023-02-20T09:36:01.597Z,9.81
2023-02-20T09:37:01.623Z,9.86
2023-02-20T09:38:01.570Z,9.92
2023-02-20T09:39:01.566Z,9.89
2023-02-20T09:40:01.594Z,9.91
2023-02-20T09:41:01.561Z,9.93
2023-02-20T09:42:01.623Z,10.01
2023-02-20T09:43:01.543Z,10.17
2023-02-20T09:44:01.546Z,10.25
2023-02-20T09:45:01.553Z,10.49
2023-02-20T09:46:01.604Z,10.55
2023-02-20T09:47:01.529Z,10.62
2023-02-20T09:48:01.542Z,10.60
2023-02-20T09:49:01.525Z,10.52
2023-02-20T09:50:01.532Z,10.66
2023-02-20T09:51:01.515Z,10.60
2023-02-20T09:52:01.487Z,10.47
2023-02-20T09:53:01.526Z,10.62
2023-02-20T09:54:01.543Z,10.69
2023-02-20T09:55:01.491Z,10.73
2023-02-20T09:56:01.524Z,10.98
2023-02-20T09:57:01.506Z,10.90
2023-02-20T09:58:01.447Z,11.06
2023-02-20T09:59:01.490Z,11.20
2023-02-20T10:00:04.661Z,11.28
2023-02-20T10:01:02.454Z,11.28
2023-02-20T10:02:01.527Z,11.36
2023-02-20T10:03:01.535Z,11.42
2023-02-20T10:04:01.470Z,11.11
2023-02-20T10:05:02.040Z,10.95
2023-02-20T10:06:02.416Z,10.81
2023-02-20T10:07:01.418Z,10.65
2023-02-20T10:08:01.439Z,10.66
2023-02-20T10:09:01.434Z,10.51
2023-02-20T10:10:01.405Z,10.49
2023-02-20T10:11:01.386Z,10.42
2023-02-20T10:12:01.416Z,10.52
2023-02-20T10:13:01.407Z,10.54
2023-02-20T10:14:01.533Z,10.51
2023-02-20T10:15:01.355Z,10.62
2023-02-20T10:16:01.411Z,10.57
2023-02-20T10:17:01.371Z,10.62
2023-02-20T10:18:01.406Z,10.80
2023-02-20T10:19:01.354Z,10.75
2023-02-20T10:20:01.337Z,10.83
2023-02-20T10:21:01.417Z,10.98
2023-02-20T10:22:01.310Z,11.01
2023-02-20T10:23:01.335Z,10.90
2023-02-20T10:24:05.934Z,10.95
2023-02-20T10:25:02.362Z,10.94
2023-02-20T10:26:01.279Z,10.94
2023-02-20T10:27:01.293Z,10.94
2023-02-20T10:28:01.320Z,11.02
2023-02-20T10:29:01.349Z,11.23
2023-02-20T10:30:01.331Z,11.56
2023-02-20T10:31:01.303Z,11.56
2023-02-20T10:32:01.284Z,11.66
2023-02-20T10:33:01.279Z,11.79
2023-02-20T10:34:01.236Z,11.75
2023-02-20T10:35:01.240Z,11.63
2023-02-20T10:36:01.270Z,11.54
2023-02-20T10:37:01.205Z,11.53
2023-02-20T10:38:01.213Z,11.53
2023-02-20T10:39:01.246Z,11.38
2023-02-20T10:40:01.188Z,11.42
2023-02-20T10:41:01.212Z,11.38
2023-02-20T10:42:01.164Z,11.19
2023-02-20T10:43:01.175Z,11.21
2023-02-20T10:44:01.178Z,11.33
2023-02-20T10:45:01.158Z,11.30
2023-02-20T10:46:01.231Z,11.31
2023-02-20T10:47:01.227Z,11.19
2023-02-20T10:48:01.129Z,10.99
2023-02-20T10:49:01.134Z,11.17
2023-02-20T10:50:01.107Z,11.26
2023-02-20T10:51:01.142Z,11.36
2023-02-20T10:52:01.126Z,11.23
2023-02-20T10:53:01.079Z,11.51
2023-02-20T10:54:01.089Z,11.51
2023-02-20T10:55:01.082Z,11.54
2023-02-20T10:56:01.154Z,11.59
2023-02-20T10:57:01.057Z,11.74
2023-02-20T10:58:01.107Z,11.78
2023-02-20T10:59:01.045Z,11.69
2023-02-20T11:00:01.029Z,11.67
2023-02-20T11:01:01.193Z,11.70
2023-02-20T11:02:01.108Z,11.72
2023-02-20T11:03:01.011Z,11.64
2023-02-20T11:04:01.115Z,11.56
2023-02-20T11:05:01.045Z,11.66
2023-02-20T11:06:01.121Z,11.56
2023-02-20T11:07:02.514Z,11.39
2023-02-20T11:08:02.017Z,11.16
2023-02-20T11:09:00.992Z,11.13
2023-02-20T11:10:00.979Z,10.98
2023-02-20T11:11:00.945Z,10.98
2023-02-20T11:12:00.977Z,11.09
2023-02-20T11:13:00.930Z,10.99
2023-02-20T11:14:00.981Z,11.11
2023-02-20T11:15:00.903Z,11.08
2023-02-20T11:16:01.031Z,11.26
2023-02-20T11:17:00.905Z,11.30
2023-02-20T11:18:00.928Z,11.38
2023-02-20T11:19:00.910Z,11.42
2023-02-20T11:20:00.922Z,11.51
2023-02-20T11:21:00.885Z,11.60
2023-02-20T11:22:00.919Z,11.59
2023-02-20T11:23:00.856Z,11.69
2023-02-20T11:24:00.867Z,11.72
2023-02-20T11:25:00.879Z,11.69
2023-02-20T11:26:00.845Z,11.59
2023-02-20T11:27:00.896Z,11.53
2023-02-20T11:28:00.859Z,11.54
2023-02-20T11:29:00.815Z,11.59
2023-02-20T11:30:00.880Z,11.70
2023-02-20T11:31:00.822Z,11.74
2023-02-20T11:32:00.811Z,11.98
2023-02-20T11:33:00.811Z,11.98
2023-02-20T11:34:00.777Z,11.87
2023-02-20T11:35:00.817Z,12.05
2023-02-20T11:36:00.827Z,12.12
2023-02-20T11:37:00.754Z,12.03
2023-02-20T11:38:00.760Z,11.96
2023-02-20T11:39:00.740Z,12.05
2023-02-20T11:40:00.754Z,12.13
2023-02-20T11:41:00.789Z,12.15
2023-02-20T11:42:00.723Z,12.16
2023-02-20T11:43:00.752Z,12.18
2023-02-20T11:44:01.700Z,12.19
2023-02-20T11:45:01.742Z,12.26
2023-02-20T11:46:00.768Z,12.22
2023-02-20T11:47:00.682Z,12.23
2023-02-20T11:48:00.666Z,12.26
2023-02-20T11:49:00.695Z,12.37
2023-02-20T11:50:13.473Z,12.48
2023-02-20T11:51:02.647Z,12.59
2023-02-20T11:52:00.653Z,12.55
2023-02-20T11:53:00.699Z,12.30
2023-02-20T11:54:01.787Z,12.40
2023-02-20T11:55:00.637Z,12.40
2023-02-20T11:56:00.652Z,12.48
2023-02-20T11:57:00.617Z,12.44
2023-02-20T11:58:00.648Z,12.66
2023-02-20T11:59:00.653Z,12.63
2023-02-20T12:00:00.581Z,12.87
2023-02-20T12:01:00.585Z,12.87
2023-02-20T12:02:01.381Z,12.80
2023-02-20T12:03:01.604Z,12.95
2023-02-20T12:04:00.638Z,12.92
2023-02-20T12:05:00.688Z,12.98
2023-02-20T12:06:00.606Z,12.89
2023-02-20T12:07:00.531Z,12.79
2023-02-20T12:08:00.567Z,12.69
2023-02-20T12:09:02.039Z,12.71
2023-02-20T12:10:01.490Z,12.80
2023-02-20T12:11:00.501Z,12.87
2023-02-20T12:12:00.513Z,12.89
2023-02-20T12:13:00.493Z,12.91
2023-02-20T12:14:00.552Z,13.01
2023-02-20T12:15:00.475Z,13.07
2023-02-20T12:16:00.516Z,13.27
2023-02-20T12:17:00.481Z,13.50
2023-02-20T12:18:00.443Z,13.61
2023-02-20T12:19:01.234Z,13.68
2023-02-20T12:20:00.429Z,13.79
2023-02-20T12:21:00.418Z,13.86
2023-02-20T12:22:00.416Z,13.75
2023-02-20T12:23:00.425Z,13.80
2023-02-20T12:24:00.430Z,13.71
2023-02-20T12:25:00.459Z,13.54
2023-02-20T12:26:00.387Z,13.63
2023-02-20T12:27:00.422Z,13.53
2023-02-20T12:28:00.421Z,13.48
2023-02-20T12:29:00.363Z,13.55
2023-02-20T12:30:00.344Z,13.46
2023-02-20T12:31:00.356Z,13.36
2023-02-20T12:32:00.490Z,13.29
2023-02-20T12:33:00.347Z,13.06
2023-02-20T12:34:00.356Z,13.09
2023-02-20T12:35:00.325Z,13.10
2023-02-20T12:36:00.412Z,13.14
2023-02-20T12:37:00.308Z,12.98
2023-02-20T12:38:00.311Z,12.98
2023-02-20T12:39:00.301Z,12.91
2023-02-20T12:40:00.322Z,12.81
2023-02-20T12:41:00.308Z,12.84
2023-02-20T12:42:00.293Z,12.88
2023-02-20T12:43:00.271Z,12.96
2023-02-20T12:44:12.760Z,13.01
2023-02-20T12:45:02.289Z,13.03
2023-02-20T12:46:00.277Z,13.04
2023-02-20T12:47:00.338Z,12.91
2023-02-20T12:48:00.215Z,12.95
2023-02-20T12:49:00.206Z,12.95
2023-02-20T12:50:00.265Z,12.92
2023-02-20T12:51:00.231Z,12.99
2023-02-20T12:52:00.182Z,12.92
2023-02-20T12:53:00.185Z,12.94
2023-02-20T12:54:00.251Z,12.92
2023-02-20T12:55:00.172Z,12.94
2023-02-20T12:56:00.162Z,12.95
2023-02-20T12:57:00.150Z,13.04
2023-02-20T12:58:00.141Z,12.89
2023-02-20T12:59:00.159Z,12.96
2023-02-20T13:00:00.146Z,12.88
2023-02-20T13:01:00.292Z,12.79
2023-02-20T13:02:00.158Z,12.84
2023-02-20T13:03:00.122Z,12.76
2023-02-20T13:04:00.165Z,12.77
2023-02-20T13:05:00.117Z,12.79
2023-02-20T13:06:00.115Z,12.58
2023-02-20T13:07:00.126Z,12.54
2023-02-20T13:08:00.102Z,12.63
2023-02-20T13:09:00.088Z,12.66
2023-02-20T13:10:00.123Z,12.91
2023-02-20T13:11:00.067Z,12.91